Aviation Digital Data Service (ADDS)

Output produced by TAFs form (0648 UTC 23 May 2017)
found at http://aviationweather.gov/adds/tafs/
 
KABQ 230520Z 2306/2406 36011KT P6SM SKC 
     FM230900 07015G25KT P6SM FEW050 
     FM231500 13008KT P6SM SKC 
     FM232100 33015G23KT P6SM SKC 
     FM240200 33011KT P6SM SKC